sensor_id;sensor_type;location;lat;lon;timestamp;P1;durP1;ratioP1;P2;durP2;ratioP2
80868;SDS011;70295;40.182;44.498;2024-01-30T07:09:43;56.8;;;33.7;;
80868;SDS011;70295;40.182;44.498;2024-01-30T07:11:43;59.6;;;33.4;;
80868;SDS011;70295;40.182;44.498;2024-01-30T07:13:43;58;;;34.4;;
80868;SDS011;70295;40.182;44.498;2024-01-30T07:15:43;58.7;;;33.1;;
80868;SDS011;70295;40.182;44.498;2024-01-30T07:17:43;54.9;;;31.6;;
80868;SDS011;70295;40.182;44.498;2024-01-30T07:19:43;54.6;;;33.1;;
80868;SDS011;70295;40.182;44.498;2024-01-30T07:21:43;59.1;;;33.9;;
80868;SDS011;70295;40.182;44.498;2024-01-30T07:23:43;58.4;;;32.5;;
80868;SDS011;70295;40.182;44.498;2024-01-30T07:25:43;57.7;;;32.4;;
80868;SDS011;70295;40.182;44.498;2024-01-30T07:27:43;57;;;31.8;;
80868;SDS011;70295;40.182;44.498;2024-01-30T07:29:43;58;;;32.1;;
80868;SDS011;70295;40.182;44.498;2024-01-30T07:31:43;57.1;;;31.5;;
80868;SDS011;70295;40.182;44.498;2024-01-30T07:33:43;61.6;;;32.5;;
80868;SDS011;70295;40.182;44.498;2024-01-30T07:35:43;59.7;;;33.1;;
80868;SDS011;70295;40.182;44.498;2024-01-30T07:37:43;54;;;30.6;;
80868;SDS011;70295;40.182;44.498;2024-01-30T07:39:43;57.2;;;32.7;;
80868;SDS011;70295;40.182;44.498;2024-01-30T07:41:43;57.1;;;32.7;;
80868;SDS011;70295;40.182;44.498;2024-01-30T07:43:43;55.2;;;32.6;;
80868;SDS011;70295;40.182;44.498;2024-01-30T07:45:43;52.9;;;31;;
80868;SDS011;70295;40.182;44.498;2024-01-30T07:47:43;60;;;33.8;;
80868;SDS011;70295;40.182;44.498;2024-01-30T07:49:43;56;;;31.9;;
80868;SDS011;70295;40.182;44.498;2024-01-30T07:51:43;58.5;;;32.4;;
80868;SDS011;70295;40.182;44.498;2024-01-30T07:53:43;61.2;;;32.1;;
80868;SDS011;70295;40.182;44.498;2024-01-30T07:55:43;53.8;;;30.4;;
80868;SDS011;70295;40.182;44.498;2024-01-30T07:57:43;56.6;;;31.5;;
80868;SDS011;70295;40.182;44.498;2024-01-30T07:59:44;55.1;;;31.6;;
80868;SDS011;70295;40.182;44.498;2024-01-30T08:01:43;52.5;;;30.5;;
80868;SDS011;70295;40.182;44.498;2024-01-30T08:03:43;52.6;;;28.7;;
80868;SDS011;70295;40.182;44.498;2024-01-30T08:05:43;48.5;;;28.2;;
80868;SDS011;70295;40.182;44.498;2024-01-30T08:07:43;52;;;29.3;;
80868;SDS011;70295;40.182;44.498;2024-01-30T08:09:43;50.5;;;28.9;;
80868;SDS011;70295;40.182;44.498;2024-01-30T08:11:43;50.2;;;27.5;;
80868;SDS011;70295;40.182;44.498;2024-01-30T08:13:43;44.3;;;26;;
80868;SDS011;70295;40.182;44.498;2024-01-30T08:15:43;45.3;;;26.7;;
80868;SDS011;70295;40.182;44.498;2024-01-30T08:17:43;47.6;;;27.2;;
80868;SDS011;70295;40.182;44.498;2024-01-30T08:19:43;50.9;;;28.9;;
80868;SDS011;70295;40.182;44.498;2024-01-30T08:21:43;52.5;;;30.1;;
80868;SDS011;70295;40.182;44.498;2024-01-30T08:23:43;46.8;;;26.5;;
80868;SDS011;70295;40.182;44.498;2024-01-30T08:25:43;48.3;;;27.9;;
80868;SDS011;70295;40.182;44.498;2024-01-30T08:27:43;51.3;;;30.3;;
80868;SDS011;70295;40.182;44.498;2024-01-30T08:29:43;54.7;;;31.3;;
80868;SDS011;70295;40.182;44.498;2024-01-30T08:31:43;49.5;;;28;;
80868;SDS011;70295;40.182;44.498;2024-01-30T08:33:43;49.9;;;28.1;;
80868;SDS011;70295;40.182;44.498;2024-01-30T08:35:43;46.4;;;26.3;;
80868;SDS011;70295;40.182;44.498;2024-01-30T08:37:43;49.5;;;27.2;;
80868;SDS011;70295;40.182;44.498;2024-01-30T08:39:43;52.5;;;29.2;;
80868;SDS011;70295;40.182;44.498;2024-01-30T08:41:43;53.6;;;29.9;;
80868;SDS011;70295;40.182;44.498;2024-01-30T08:43:43;45.8;;;28.3;;
80868;SDS011;70295;40.182;44.498;2024-01-30T08:45:43;51;;;27.3;;
80868;SDS011;70295;40.182;44.498;2024-01-30T08:47:43;48.9;;;27.4;;
80868;SDS011;70295;40.182;44.498;2024-01-30T08:49:43;48.6;;;27.2;;
80868;SDS011;70295;40.182;44.498;2024-01-30T08:51:43;45.3;;;26.3;;
80868;SDS011;70295;40.182;44.498;2024-01-30T08:53:43;46.8;;;26.1;;
80868;SDS011;70295;40.182;44.498;2024-01-30T08:55:43;46;;;26.6;;
80868;SDS011;70295;40.182;44.498;2024-01-30T08:57:43;44.4;;;26.1;;
80868;SDS011;70295;40.182;44.498;2024-01-30T08:59:43;46.7;;;26.6;;
80868;SDS011;70295;40.182;44.498;2024-01-30T09:01:43;51.5;;;27.8;;
80868;SDS011;70295;40.182;44.498;2024-01-30T09:03:43;44.3;;;25.2;;
80868;SDS011;70295;40.182;44.498;2024-01-30T09:05:43;45.5;;;26.1;;
80868;SDS011;70295;40.182;44.498;2024-01-30T09:07:43;45.4;;;26;;
80868;SDS011;70295;40.182;44.498;2024-01-30T09:09:43;45.9;;;27.3;;
80868;SDS011;70295;40.182;44.498;2024-01-30T09:11:43;46.8;;;28.2;;
80868;SDS011;70295;40.182;44.498;2024-01-30T09:13:43;45.3;;;26.6;;
80868;SDS011;70295;40.182;44.498;2024-01-30T09:15:43;50.7;;;27.1;;
80868;SDS011;70295;40.182;44.498;2024-01-30T09:17:43;40.9;;;23.4;;
80868;SDS011;70295;40.182;44.498;2024-01-30T09:19:43;40.6;;;24.4;;
80868;SDS011;70295;40.182;44.498;2024-01-30T09:21:43;40.4;;;24.3;;
80868;SDS011;70295;40.182;44.498;2024-01-30T09:23:43;43.4;;;25;;
80868;SDS011;70295;40.182;44.498;2024-01-30T09:25:43;42;;;24.8;;
80868;SDS011;70295;40.182;44.498;2024-01-30T09:27:43;40.2;;;24.4;;
80868;SDS011;70295;40.182;44.498;2024-01-30T09:29:43;40.1;;;23.7;;
80868;SDS011;70295;40.182;44.498;2024-01-30T09:33:51;37.9;;;22.6;;
80868;SDS011;70295;40.182;44.498;2024-01-30T09:35:51;41.6;;;22.5;;
80868;SDS011;70295;40.182;44.498;2024-01-30T09:37:51;36.7;;;22.4;;
80868;SDS011;70295;40.182;44.498;2024-01-30T09:39:51;34.9;;;21.9;;
80868;SDS011;70295;40.182;44.498;2024-01-30T09:43:52;38.7;;;23;;
80868;SDS011;70295;40.182;44.498;2024-01-30T09:45:52;37.3;;;22.9;;
80868;SDS011;70295;40.182;44.498;2024-01-30T09:47:52;37.7;;;22.8;;
80868;SDS011;70295;40.182;44.498;2024-01-30T09:49:51;37.2;;;21.5;;
80868;SDS011;70295;40.182;44.498;2024-01-30T09:51:51;34.8;;;20.5;;
80868;SDS011;70295;40.182;44.498;2024-01-30T09:53:51;32.2;;;19.7;;
80868;SDS011;70295;40.182;44.498;2024-01-30T09:55:51;36.3;;;22;;
80868;SDS011;70295;40.182;44.498;2024-01-30T09:57:51;31.1;;;19.5;;
80868;SDS011;70295;40.182;44.498;2024-01-30T09:59:51;32.1;;;19.7;;
80868;SDS011;70295;40.182;44.498;2024-01-30T10:01:51;30.1;;;17.9;;
80868;SDS011;70295;40.182;44.498;2024-01-30T10:03:51;34.1;;;18.8;;
80868;SDS011;70295;40.182;44.498;2024-01-30T10:05:51;30;;;18.3;;
80868;SDS011;70295;40.182;44.498;2024-01-30T10:07:55;32.1;;;19.6;;
80868;SDS011;70295;40.182;44.498;2024-01-30T10:09:53;31.5;;;19.1;;
80868;SDS011;70295;40.182;44.498;2024-01-30T10:11:51;34.5;;;20.5;;
80868;SDS011;70295;40.182;44.498;2024-01-30T10:13:51;31.8;;;19.8;;
80868;SDS011;70295;40.182;44.498;2024-01-30T10:15:53;32.5;;;19.6;;
80868;SDS011;70295;40.182;44.498;2024-01-30T10:17:51;30.8;;;20.6;;
80868;SDS011;70295;40.182;44.498;2024-01-30T10:19:51;31.6;;;19.6;;
80868;SDS011;70295;40.182;44.498;2024-01-30T10:21:51;33;;;19.6;;
80868;SDS011;70295;40.182;44.498;2024-01-30T10:23:51;31.7;;;20.6;;
80868;SDS011;70295;40.182;44.498;2024-01-30T10:25:51;36.6;;;21.5;;
80868;SDS011;70295;40.182;44.498;2024-01-30T10:27:54;35.3;;;20.5;;
80868;SDS011;70295;40.182;44.498;2024-01-30T10:29:51;35.6;;;21.6;;
80868;SDS011;70295;40.182;44.498;2024-01-30T10:32:02;35.4;;;21.9;;
80868;SDS011;70295;40.182;44.498;2024-01-30T10:33:51;35.6;;;21.8;;
80868;SDS011;70295;40.182;44.498;2024-01-30T10:35:51;38.8;;;22.1;;
80868;SDS011;70295;40.182;44.498;2024-01-30T10:37:52;37.1;;;22.8;;
80868;SDS011;70295;40.182;44.498;2024-01-30T10:39:53;39.2;;;23.5;;
80868;SDS011;70295;40.182;44.498;2024-01-30T10:41:56;37.5;;;23.3;;
80868;SDS011;70295;40.182;44.498;2024-01-30T10:45:53;39.8;;;23.8;;
80868;SDS011;70295;40.182;44.498;2024-01-30T10:47:54;43.3;;;25.1;;
80868;SDS011;70295;40.182;44.498;2024-01-30T10:49:51;44.4;;;25.4;;
80868;SDS011;70295;40.182;44.498;2024-01-30T10:51:52;38.7;;;23.6;;
80868;SDS011;70295;40.182;44.498;2024-01-30T10:53:52;43.5;;;25;;
80868;SDS011;70295;40.182;44.498;2024-01-30T10:55:51;43.2;;;25.2;;
80868;SDS011;70295;40.182;44.498;2024-01-30T10:57:51;45;;;26.8;;
80868;SDS011;70295;40.182;44.498;2024-01-30T10:59:56;42.2;;;25.5;;
80868;SDS011;70295;40.182;44.498;2024-01-30T11:01:51;43.6;;;26.9;;
80868;SDS011;70295;40.182;44.498;2024-01-30T11:03:54;46.3;;;28;;
80868;SDS011;70295;40.182;44.498;2024-01-30T11:05:52;44.5;;;26.2;;
80868;SDS011;70295;40.182;44.498;2024-01-30T11:07:51;41.5;;;24.9;;
80868;SDS011;70295;40.182;44.498;2024-01-30T11:09:52;46.8;;;27;;
80868;SDS011;70295;40.182;44.498;2024-01-30T11:11:56;39.9;;;24.8;;
80868;SDS011;70295;40.182;44.498;2024-01-30T11:13:51;43.8;;;26.3;;
80868;SDS011;70295;40.182;44.498;2024-01-30T11:15:51;41.6;;;24.7;;
80868;SDS011;70295;40.182;44.498;2024-01-30T11:17:52;40.3;;;24.7;;
80868;SDS011;70295;40.182;44.498;2024-01-30T11:19:51;38.8;;;24.3;;
80868;SDS011;70295;40.182;44.498;2024-01-30T11:21:52;41.4;;;24.9;;
80868;SDS011;70295;40.182;44.498;2024-01-30T11:23:51;39.9;;;24.9;;
80868;SDS011;70295;40.182;44.498;2024-01-30T11:25:52;42.8;;;25.1;;
80868;SDS011;70295;40.182;44.498;2024-01-30T11:27:53;39.1;;;24.2;;
80868;SDS011;70295;40.182;44.498;2024-01-30T11:29:51;41.2;;;24.4;;
80868;SDS011;70295;40.182;44.498;2024-01-30T11:31:52;40;;;23.8;;
80868;SDS011;70295;40.182;44.498;2024-01-30T11:33:53;44.5;;;27.4;;
80868;SDS011;70295;40.182;44.498;2024-01-30T11:35:51;38.3;;;23.7;;
80868;SDS011;70295;40.182;44.498;2024-01-30T11:37:51;39.1;;;22.6;;
80868;SDS011;70295;40.182;44.498;2024-01-30T11:39:51;39.5;;;23;;
80868;SDS011;70295;40.182;44.498;2024-01-30T11:41:51;33.5;;;21.5;;
80868;SDS011;70295;40.182;44.498;2024-01-30T11:43:52;35.6;;;22;;
80868;SDS011;70295;40.182;44.498;2024-01-30T11:45:51;37.3;;;21.4;;
80868;SDS011;70295;40.182;44.498;2024-01-30T11:47:51;38.6;;;23.2;;
80868;SDS011;70295;40.182;44.498;2024-01-30T11:49:51;43.6;;;26.5;;
80868;SDS011;70295;40.182;44.498;2024-01-30T11:51:52;39;;;22.9;;
80868;SDS011;70295;40.182;44.498;2024-01-30T11:53:51;37.7;;;22.9;;
80868;SDS011;70295;40.182;44.498;2024-01-30T11:55:51;34.1;;;21.5;;
80868;SDS011;70295;40.182;44.498;2024-01-30T11:57:51;35.1;;;22.1;;
80868;SDS011;70295;40.182;44.498;2024-01-30T11:59:51;34.7;;;21.5;;
80868;SDS011;70295;40.182;44.498;2024-01-30T12:01:52;37.1;;;21.7;;
80868;SDS011;70295;40.182;44.498;2024-01-30T12:03:51;32;;;19.1;;
80868;SDS011;70295;40.182;44.498;2024-01-30T12:05:56;34.4;;;20.8;;
80868;SDS011;70295;40.182;44.498;2024-01-30T12:07:51;31.5;;;18.1;;
80868;SDS011;70295;40.182;44.498;2024-01-30T12:09:54;31.7;;;20.4;;
80868;SDS011;70295;40.182;44.498;2024-01-30T12:11:51;33.5;;;20;;
80868;SDS011;70295;40.182;44.498;2024-01-30T12:13:52;29.3;;;19.5;;
80868;SDS011;70295;40.182;44.498;2024-01-30T12:15:51;31.4;;;18.3;;
80868;SDS011;70295;40.182;44.498;2024-01-30T12:17:51;33;;;19.4;;
80868;SDS011;70295;40.182;44.498;2024-01-30T12:19:51;28.9;;;19.3;;
80868;SDS011;70295;40.182;44.498;2024-01-30T12:21:59;35.8;;;22.1;;
80868;SDS011;70295;40.182;44.498;2024-01-30T12:23:51;38;;;22;;
80868;SDS011;70295;40.182;44.498;2024-01-30T12:25:51;32.6;;;21;;
80868;SDS011;70295;40.182;44.498;2024-01-30T12:27:52;36.6;;;21.5;;
80868;SDS011;70295;40.182;44.498;2024-01-30T12:29:58;39.9;;;23.9;;
80868;SDS011;70295;40.182;44.498;2024-01-30T12:31:54;36.6;;;22.7;;
80868;SDS011;70295;40.182;44.498;2024-01-30T12:33:51;37;;;23.5;;
80868;SDS011;70295;40.182;44.498;2024-01-30T12:35:51;40;;;23.7;;
80868;SDS011;70295;40.182;44.498;2024-01-30T12:37:51;43.7;;;24.7;;
80868;SDS011;70295;40.182;44.498;2024-01-30T12:39:52;44.7;;;25.3;;
80868;SDS011;70295;40.182;44.498;2024-01-30T12:41:51;39.7;;;23.3;;
80868;SDS011;70295;40.182;44.498;2024-01-30T12:43:51;43.9;;;24.2;;
80868;SDS011;70295;40.182;44.498;2024-01-30T12:45:52;39.6;;;24.2;;
80868;SDS011;70295;40.182;44.498;2024-01-30T12:47:51;46.4;;;26.6;;
80868;SDS011;70295;40.182;44.498;2024-01-30T12:49:51;45;;;26.1;;
80868;SDS011;70295;40.182;44.498;2024-01-30T12:51:51;42.6;;;25;;
80868;SDS011;70295;40.182;44.498;2024-01-30T12:53:51;43.3;;;24.9;;
80868;SDS011;70295;40.182;44.498;2024-01-30T12:55:51;42.7;;;24.2;;
80868;SDS011;70295;40.182;44.498;2024-01-30T12:57:51;42.3;;;23.9;;
80868;SDS011;70295;40.182;44.498;2024-01-30T12:59:51;44.5;;;25.8;;
80868;SDS011;70295;40.182;44.498;2024-01-30T13:01:51;48.5;;;26.6;;
80868;SDS011;70295;40.182;44.498;2024-01-30T13:03:52;50.8;;;27.7;;
80868;SDS011;70295;40.182;44.498;2024-01-30T13:05:51;49.6;;;27.3;;
80868;SDS011;70295;40.182;44.498;2024-01-30T13:07:51;50.9;;;29.4;;
80868;SDS011;70295;40.182;44.498;2024-01-30T13:09:51;47.9;;;27.9;;
80868;SDS011;70295;40.182;44.498;2024-01-30T13:11:51;47.1;;;27.5;;
80868;SDS011;70295;40.182;44.498;2024-01-30T13:13:51;46.2;;;27.8;;
80868;SDS011;70295;40.182;44.498;2024-01-30T13:15:51;50.9;;;28.1;;
80868;SDS011;70295;40.182;44.498;2024-01-30T13:17:51;46.1;;;27.5;;
80868;SDS011;70295;40.182;44.498;2024-01-30T13:19:51;47.7;;;27.6;;
80868;SDS011;70295;40.182;44.498;2024-01-30T13:21:51;50.8;;;28.1;;
80868;SDS011;70295;40.182;44.498;2024-01-30T13:23:51;46.3;;;27.4;;
80868;SDS011;70295;40.182;44.498;2024-01-30T13:25:51;50.8;;;28.7;;
80868;SDS011;70295;40.182;44.498;2024-01-30T13:27:51;49.9;;;28.1;;
80868;SDS011;70295;40.182;44.498;2024-01-30T13:29:51;49.4;;;28.3;;
80868;SDS011;70295;40.182;44.498;2024-01-30T13:31:51;50.4;;;28.6;;
80868;SDS011;70295;40.182;44.498;2024-01-30T13:33:51;51.4;;;28.8;;
80868;SDS011;70295;40.182;44.498;2024-01-30T13:35:51;49;;;28.4;;
80868;SDS011;70295;40.182;44.498;2024-01-30T13:37:51;51.6;;;29.8;;
80868;SDS011;70295;40.182;44.498;2024-01-30T13:39:51;53.7;;;28.2;;
80868;SDS011;70295;40.182;44.498;2024-01-30T13:41:51;52.6;;;29.9;;
80868;SDS011;70295;40.182;44.498;2024-01-30T13:43:51;52.5;;;29.4;;
80868;SDS011;70295;40.182;44.498;2024-01-30T13:45:51;48.2;;;28.4;;
80868;SDS011;70295;40.182;44.498;2024-01-30T13:47:51;51;;;28.2;;
80868;SDS011;70295;40.182;44.498;2024-01-30T13:49:51;58.3;;;30.4;;
80868;SDS011;70295;40.182;44.498;2024-01-30T13:51:51;56.5;;;30.4;;
80868;SDS011;70295;40.182;44.498;2024-01-30T13:53:51;53.9;;;29.5;;
80868;SDS011;70295;40.182;44.498;2024-01-30T13:55:51;49.2;;;28.3;;
80868;SDS011;70295;40.182;44.498;2024-01-30T13:57:51;53.4;;;29.6;;
80868;SDS011;70295;40.182;44.498;2024-01-30T13:59:51;55.6;;;29.5;;
80868;SDS011;70295;40.182;44.498;2024-01-30T14:01:51;52.9;;;30.2;;
80868;SDS011;70295;40.182;44.498;2024-01-30T14:03:51;54.8;;;30.6;;
80868;SDS011;70295;40.182;44.498;2024-01-30T14:05:51;53.3;;;30.1;;
80868;SDS011;70295;40.182;44.498;2024-01-30T14:07:51;51;;;27.7;;
80868;SDS011;70295;40.182;44.498;2024-01-30T14:09:51;50.2;;;28.4;;
80868;SDS011;70295;40.182;44.498;2024-01-30T14:11:51;51.8;;;27.9;;
80868;SDS011;70295;40.182;44.498;2024-01-30T14:13:51;53;;;29.1;;
80868;SDS011;70295;40.182;44.498;2024-01-30T14:15:53;53.1;;;29.3;;
80868;SDS011;70295;40.182;44.498;2024-01-30T14:17:51;47.7;;;27.5;;
80868;SDS011;70295;40.182;44.498;2024-01-30T14:19:51;49.7;;;28;;
80868;SDS011;70295;40.182;44.498;2024-01-30T14:21:51;48.7;;;27.5;;
80868;SDS011;70295;40.182;44.498;2024-01-30T14:23:51;49.9;;;27;;
80868;SDS011;70295;40.182;44.498;2024-01-30T14:25:51;50.3;;;28.2;;
80868;SDS011;70295;40.182;44.498;2024-01-30T14:27:51;53.3;;;29.4;;
80868;SDS011;70295;40.182;44.498;2024-01-30T14:29:51;52.1;;;28.5;;
80868;SDS011;70295;40.182;44.498;2024-01-30T14:31:51;53.3;;;29.1;;
80868;SDS011;70295;40.182;44.498;2024-01-30T14:33:51;49.9;;;28.1;;
80868;SDS011;70295;40.182;44.498;2024-01-30T14:35:51;48.3;;;28.9;;
80868;SDS011;70295;40.182;44.498;2024-01-30T14:37:51;49.5;;;27.2;;
80868;SDS011;70295;40.182;44.498;2024-01-30T14:39:51;52.6;;;29;;
80868;SDS011;70295;40.182;44.498;2024-01-30T14:41:51;52;;;29.8;;
80868;SDS011;70295;40.182;44.498;2024-01-30T14:43:51;50.2;;;30.1;;
80868;SDS011;70295;40.182;44.498;2024-01-30T14:45:51;50.6;;;28.2;;
80868;SDS011;70295;40.182;44.498;2024-01-30T14:47:51;54.3;;;29.8;;
80868;SDS011;70295;40.182;44.498;2024-01-30T14:49:51;53.5;;;27.8;;
80868;SDS011;70295;40.182;44.498;2024-01-30T14:51:51;52.1;;;28.7;;
80868;SDS011;70295;40.182;44.498;2024-01-30T14:53:51;53.2;;;30.1;;
80868;SDS011;70295;40.182;44.498;2024-01-30T14:55:51;54.1;;;30.5;;
80868;SDS011;70295;40.182;44.498;2024-01-30T14:57:51;57.2;;;31.1;;
80868;SDS011;70295;40.182;44.498;2024-01-30T14:59:51;54.7;;;31;;
80868;SDS011;70295;40.182;44.498;2024-01-30T15:01:51;56.1;;;29.4;;
80868;SDS011;70295;40.182;44.498;2024-01-30T15:03:51;54.7;;;30.2;;
80868;SDS011;70295;40.182;44.498;2024-01-30T15:05:51;53.4;;;30.1;;
80868;SDS011;70295;40.182;44.498;2024-01-30T15:07:51;55.4;;;30.5;;
80868;SDS011;70295;40.182;44.498;2024-01-30T15:09:51;59.1;;;32.8;;
80868;SDS011;70295;40.182;44.498;2024-01-30T15:11:51;57.5;;;32.2;;
80868;SDS011;70295;40.182;44.498;2024-01-30T15:13:51;60.3;;;32.7;;
80868;SDS011;70295;40.182;44.498;2024-01-30T15:15:51;59.4;;;32.4;;
80868;SDS011;70295;40.182;44.498;2024-01-30T15:17:51;57.2;;;32.3;;
80868;SDS011;70295;40.182;44.498;2024-01-30T15:19:51;58;;;32.8;;
80868;SDS011;70295;40.182;44.498;2024-01-30T15:21:51;62.9;;;33.9;;
80868;SDS011;70295;40.182;44.498;2024-01-30T15:23:51;60.2;;;32.7;;
80868;SDS011;70295;40.182;44.498;2024-01-30T15:25:51;63;;;33.3;;
80868;SDS011;70295;40.182;44.498;2024-01-30T15:27:51;61.2;;;32.6;;
80868;SDS011;70295;40.182;44.498;2024-01-30T15:29:51;63;;;34.4;;
80868;SDS011;70295;40.182;44.498;2024-01-30T15:31:51;56.6;;;32.8;;
80868;SDS011;70295;40.182;44.498;2024-01-30T15:33:51;60;;;32;;
80868;SDS011;70295;40.182;44.498;2024-01-30T15:35:51;63.1;;;33.3;;
80868;SDS011;70295;40.182;44.498;2024-01-30T15:37:51;59.5;;;32.3;;
80868;SDS011;70295;40.182;44.498;2024-01-30T15:39:51;64.5;;;34.8;;
80868;SDS011;70295;40.182;44.498;2024-01-30T15:41:51;65.3;;;34.5;;
80868;SDS011;70295;40.182;44.498;2024-01-30T15:43:51;59.9;;;33.5;;
80868;SDS011;70295;40.182;44.498;2024-01-30T15:45:51;61.6;;;31.9;;
80868;SDS011;70295;40.182;44.498;2024-01-30T15:47:51;59.8;;;31.6;;
80868;SDS011;70295;40.182;44.498;2024-01-30T15:49:51;59.6;;;33.6;;
80868;SDS011;70295;40.182;44.498;2024-01-30T15:51:51;60.8;;;33.9;;
80868;SDS011;70295;40.182;44.498;2024-01-30T15:53:51;57.3;;;31.5;;
80868;SDS011;70295;40.182;44.498;2024-01-30T15:55:51;61.5;;;33.6;;
80868;SDS011;70295;40.182;44.498;2024-01-30T15:57:51;64.7;;;34.6;;
80868;SDS011;70295;40.182;44.498;2024-01-30T15:59:51;65.5;;;35.4;;
80868;SDS011;70295;40.182;44.498;2024-01-30T16:01:51;65.7;;;35.2;;
80868;SDS011;70295;40.182;44.498;2024-01-30T16:03:51;65.1;;;35.1;;
80868;SDS011;70295;40.182;44.498;2024-01-30T16:05:51;62.2;;;34.4;;
80868;SDS011;70295;40.182;44.498;2024-01-30T16:07:51;65;;;35.8;;
80868;SDS011;70295;40.182;44.498;2024-01-30T16:09:51;64.6;;;34.9;;
80868;SDS011;70295;40.182;44.498;2024-01-30T16:11:51;64.8;;;36.4;;
80868;SDS011;70295;40.182;44.498;2024-01-30T16:13:51;64.2;;;35.5;;
80868;SDS011;70295;40.182;44.498;2024-01-30T16:15:51;65.3;;;34.9;;
80868;SDS011;70295;40.182;44.498;2024-01-30T16:17:51;64.9;;;34.5;;
80868;SDS011;70295;40.182;44.498;2024-01-30T16:19:51;64.7;;;34.9;;
80868;SDS011;70295;40.182;44.498;2024-01-30T16:21:51;62.7;;;34.1;;
80868;SDS011;70295;40.182;44.498;2024-01-30T16:23:51;61.8;;;33.4;;
80868;SDS011;70295;40.182;44.498;2024-01-30T16:25:51;64.7;;;34.7;;
80868;SDS011;70295;40.182;44.498;2024-01-30T16:33:11;66;;;35.3;;
80868;SDS011;70295;40.182;44.498;2024-01-30T16:35:10;69.8;;;36.7;;
80868;SDS011;70295;40.182;44.498;2024-01-30T16:37:10;68.4;;;37.1;;
80868;SDS011;70295;40.182;44.498;2024-01-30T16:39:23;69.6;;;36.6;;
80868;SDS011;70295;40.182;44.498;2024-01-30T16:41:23;72;;;39;;
80868;SDS011;70295;40.182;44.498;2024-01-30T16:43:23;70.7;;;38.4;;
80868;SDS011;70295;40.182;44.498;2024-01-30T16:45:23;70.7;;;38.1;;
80868;SDS011;70295;40.182;44.498;2024-01-30T16:47:23;72.4;;;38.6;;
80868;SDS011;70295;40.182;44.498;2024-01-30T16:49:23;68;;;37.6;;
80868;SDS011;70295;40.182;44.498;2024-01-30T16:51:23;68.8;;;36.4;;
80868;SDS011;70295;40.182;44.498;2024-01-30T16:53:23;62.8;;;35.7;;
80868;SDS011;70295;40.182;44.498;2024-01-30T16:55:23;63.8;;;35.4;;
80868;SDS011;70295;40.182;44.498;2024-01-30T16:57:23;66.3;;;35.8;;
80868;SDS011;70295;40.182;44.498;2024-01-30T16:59:23;66.7;;;35.8;;
80868;SDS011;70295;40.182;44.498;2024-01-30T17:01:23;64.8;;;35;;
80868;SDS011;70295;40.182;44.498;2024-01-30T17:03:23;64.8;;;35;;
80868;SDS011;70295;40.182;44.498;2024-01-30T17:05:23;65;;;34.5;;
80868;SDS011;70295;40.182;44.498;2024-01-30T17:07:23;67.3;;;36.1;;
80868;SDS011;70295;40.182;44.498;2024-01-30T17:09:23;64.6;;;34;;
80868;SDS011;70295;40.182;44.498;2024-01-30T17:11:23;69;;;36.8;;
80868;SDS011;70295;40.182;44.498;2024-01-30T17:13:23;67;;;36.4;;
80868;SDS011;70295;40.182;44.498;2024-01-30T17:15:23;66.3;;;35.8;;
80868;SDS011;70295;40.182;44.498;2024-01-30T17:17:23;68.8;;;36.8;;
80868;SDS011;70295;40.182;44.498;2024-01-30T17:19:23;69.4;;;37.1;;
80868;SDS011;70295;40.182;44.498;2024-01-30T17:21:23;68.9;;;37.4;;
80868;SDS011;70295;40.182;44.498;2024-01-30T17:23:23;73;;;39.7;;
80868;SDS011;70295;40.182;44.498;2024-01-30T17:25:23;77.4;;;40.8;;
80868;SDS011;70295;40.182;44.498;2024-01-30T17:27:23;74.7;;;40.5;;
80868;SDS011;70295;40.182;44.498;2024-01-30T17:29:23;74.7;;;40.5;;
80868;SDS011;70295;40.182;44.498;2024-01-30T17:31:23;75.1;;;40.4;;
80868;SDS011;70295;40.182;44.498;2024-01-30T17:33:23;73.1;;;39.7;;
80868;SDS011;70295;40.182;44.498;2024-01-30T17:35:23;73.6;;;40.3;;
80868;SDS011;70295;40.182;44.498;2024-01-30T17:37:23;82.5;;;41.6;;
80868;SDS011;70295;40.182;44.498;2024-01-30T17:39:23;79.2;;;40.6;;
80868;SDS011;70295;40.182;44.498;2024-01-30T17:41:23;80.2;;;42.4;;
80868;SDS011;70295;40.182;44.498;2024-01-30T17:43:23;80.4;;;42.9;;
80868;SDS011;70295;40.182;44.498;2024-01-30T17:45:23;76.7;;;39.8;;
80868;SDS011;70295;40.182;44.498;2024-01-30T17:47:23;81.1;;;40;;
80868;SDS011;70295;40.182;44.498;2024-01-30T17:49:23;76.8;;;41.5;;
80868;SDS011;70295;40.182;44.498;2024-01-30T17:51:23;75.1;;;40.6;;
80868;SDS011;70295;40.182;44.498;2024-01-30T17:53:23;77.4;;;41.9;;
80868;SDS011;70295;40.182;44.498;2024-01-30T17:55:23;80.4;;;41.1;;
80868;SDS011;70295;40.182;44.498;2024-01-30T17:57:23;75.8;;;41.2;;
80868;SDS011;70295;40.182;44.498;2024-01-30T17:59:23;76.1;;;37.6;;
80868;SDS011;70295;40.182;44.498;2024-01-30T18:01:23;78.8;;;41.4;;
80868;SDS011;70295;40.182;44.498;2024-01-30T18:03:50;77.3;;;40.7;;
80868;SDS011;70295;40.182;44.498;2024-01-30T18:05:50;78.9;;;41.6;;
80868;SDS011;70295;40.182;44.498;2024-01-30T18:07:50;74.9;;;40.5;;
80868;SDS011;70295;40.182;44.498;2024-01-30T18:09:50;87;;;43.7;;
80868;SDS011;70295;40.182;44.498;2024-01-30T18:11:50;89.9;;;46.9;;
80868;SDS011;70295;40.182;44.498;2024-01-30T18:13:50;83.9;;;44;;
80868;SDS011;70295;40.182;44.498;2024-01-30T18:15:50;86.2;;;45.5;;
80868;SDS011;70295;40.182;44.498;2024-01-30T18:17:50;81.3;;;43.6;;
80868;SDS011;70295;40.182;44.498;2024-01-30T18:19:50;73;;;40.7;;
80868;SDS011;70295;40.182;44.498;2024-01-30T18:21:50;81.1;;;43;;
80868;SDS011;70295;40.182;44.498;2024-01-30T18:23:50;82.7;;;43.4;;
80868;SDS011;70295;40.182;44.498;2024-01-30T18:25:50;78.1;;;43.1;;
80868;SDS011;70295;40.182;44.498;2024-01-30T18:27:50;84.5;;;45.3;;
80868;SDS011;70295;40.182;44.498;2024-01-30T18:29:50;78.3;;;40;;
80868;SDS011;70295;40.182;44.498;2024-01-30T18:31:50;79.6;;;41;;
80868;SDS011;70295;40.182;44.498;2024-01-30T18:33:50;77.5;;;41.5;;
80868;SDS011;70295;40.182;44.498;2024-01-30T18:35:50;77.5;;;40;;
80868;SDS011;70295;40.182;44.498;2024-01-30T18:37:50;82;;;43.7;;
80868;SDS011;70295;40.182;44.498;2024-01-30T18:39:50;90.4;;;45.8;;
80868;SDS011;70295;40.182;44.498;2024-01-30T18:41:50;85.6;;;43.7;;
80868;SDS011;70295;40.182;44.498;2024-01-30T18:43:50;84.7;;;44.3;;
80868;SDS011;70295;40.182;44.498;2024-01-30T18:45:53;85.5;;;43.1;;
80868;SDS011;70295;40.182;44.498;2024-01-30T18:47:50;83.2;;;43.4;;
80868;SDS011;70295;40.182;44.498;2024-01-30T18:49:50;86.4;;;42.4;;
80868;SDS011;70295;40.182;44.498;2024-01-30T18:51:50;86.8;;;44.2;;
80868;SDS011;70295;40.182;44.498;2024-01-30T18:53:50;86.2;;;44.7;;
80868;SDS011;70295;40.182;44.498;2024-01-30T18:55:50;84.3;;;44.5;;
80868;SDS011;70295;40.182;44.498;2024-01-30T18:57:50;84.6;;;43.4;;
80868;SDS011;70295;40.182;44.498;2024-01-30T18:59:50;83;;;43.4;;
80868;SDS011;70295;40.182;44.498;2024-01-30T19:01:50;80.6;;;43.4;;
80868;SDS011;70295;40.182;44.498;2024-01-30T19:03:50;80.7;;;42.5;;
80868;SDS011;70295;40.182;44.498;2024-01-30T19:05:50;80.7;;;43.2;;
80868;SDS011;70295;40.182;44.498;2024-01-30T19:07:50;77;;;42.3;;
80868;SDS011;70295;40.182;44.498;2024-01-30T19:09:50;82.8;;;42.1;;
80868;SDS011;70295;40.182;44.498;2024-01-30T19:11:50;82.8;;;43.5;;
80868;SDS011;70295;40.182;44.498;2024-01-30T19:13:50;81.3;;;42.3;;
80868;SDS011;70295;40.182;44.498;2024-01-30T19:15:50;80.9;;;43;;
80868;SDS011;70295;40.182;44.498;2024-01-30T19:17:50;82.5;;;42.5;;